Weather at Aldinga Airport

Public forecast

Using degrees Celsius for public forecast. Weather courtesy of forecast.io.

Closest aviation weather report (METAR) to Aldinga Airport

Closest report is Adelaide International Airport, 20.8 nm (38.5 km) N. Retrieved 2021/01/26 07:30 UTC (0 seconds ago):

YPAD 260730Z 16013KT CAVOK 23/09 Q1007

Closest aviation forecast (TAF) to Aldinga Airport

Closest forecast is Adelaide International Airport, 20.8 nm (38.5 km) N. Retrieved 2021/01/26 09:00 UTC (0 seconds ago):

TAF YPAD 260751Z 2609/2712 17014KT 9999 FEW040 FM261400 12012KT CAVOK FM270000 23010KT CAVOK FM270700 13014KT CAVOK